Time;durP1;ratioP1;P1;durP2;ratioP2;P2;SDS_P1;SDS_P2;PMS_P1;PMS_P2;Temp;Humidity;BMP_temperature;BMP_pressure;BME280_temperature;BME280_humidity;BME280_pressure;Samples;Min_cycle;Max_cycle;Signal;HPM_P1;HPM_P2
2021/01/27 00:02:11;;;;;;;17.77;11.45;;;;;;;1.39;84.46;101385.00;10298252;28;20071;-74
2021/01/27 00:07:07;;;;;;;21.60;12.05;;;;;;;1.36;84.42;101375.53;10292870;28;20054;-73
2021/01/27 00:12:04;;;;;;;20.85;12.38;;;;;;;1.34;84.98;101374.94;10296251;28;20072;-71
2021/01/27 00:17:00;;;;;;;21.50;12.68;;;;;;;1.35;84.74;101368.53;10290378;28;20048;-71
2021/01/27 00:21:56;;;;;;;18.90;12.25;;;;;;;1.35;85.13;101360.44;10282482;28;20044;-71
2021/01/27 00:26:52;;;;;;;19.33;11.68;;;;;;;1.34;84.96;101356.09;10286415;28;20052;-70
2021/01/27 00:31:48;;;;;;;21.92;11.73;;;;;;;1.33;85.29;101351.78;10299662;28;20510;-70
2021/01/27 00:36:44;;;;;;;21.52;12.23;;;;;;;1.21;85.43;101346.44;10299348;28;20048;-72
2021/01/27 00:41:41;;;;;;;21.25;12.70;;;;;;;1.34;85.81;101350.69;10295195;28;20056;-73
2021/01/27 00:46:37;;;;;;;21.60;13.52;;;;;;;1.30;85.88;101338.78;10298353;28;20052;-72
2021/01/27 00:51:33;;;;;;;22.55;13.23;;;;;;;1.39;85.53;101342.75;10291448;28;20048;-73
2021/01/27 00:56:29;;;;;;;20.75;12.48;;;;;;;1.45;85.49;101330.97;10290561;28;20141;-73
2021/01/27 01:01:25;;;;;;;23.15;13.32;;;;;;;1.41;85.87;101313.66;10289017;28;20048;-66
2021/01/27 01:06:22;;;;;;;24.00;13.60;;;;;;;1.38;85.71;101318.72;10291401;28;20055;-68
2021/01/27 01:11:18;;;;;;;23.25;13.77;;;;;;;1.43;85.50;101322.31;10289850;28;20064;-69
2021/01/27 01:16:14;;;;;;;22.17;13.25;;;;;;;1.39;85.27;101325.72;10284656;28;20049;-72
2021/01/27 01:21:10;;;;;;;26.23;12.13;;;;;;;1.34;85.58;101333.72;10301461;28;20506;-73
2021/01/27 01:26:06;;;;;;;20.20;13.80;;;;;;;1.40;85.63;101338.97;10297428;28;20516;-72
2021/01/27 01:31:02;;;;;;;23.48;13.30;;;;;;;1.49;85.93;101341.28;10294807;28;20048;-69
2021/01/27 01:36:00;;;;;;;23.98;13.07;;;;;;;1.73;85.57;101340.09;10299977;28;20049;-69
2021/01/27 01:40:59;;;;;;;30.25;12.77;;;;;;;1.78;85.60;101334.78;10287373;28;20056;-67
2021/01/27 01:45:59;;;;;;;28.80;13.57;;;;;;;1.69;85.45;101325.44;10291068;28;20055;-71
2021/01/27 01:51:00;;;;;;;23.15;13.77;;;;;;;1.77;85.19;101316.16;10285226;28;20040;-71
2021/01/27 01:56:01;;;;;;;23.67;13.65;;;;;;;1.78;85.61;101324.00;10296470;28;20045;-71
2021/01/27 02:01:00;;;;;;;24.63;14.13;;;;;;;1.96;84.96;101314.03;10295160;28;22094;-71
2021/01/27 02:05:57;;;;;;;26.50;13.40;;;;;;;1.97;85.06;101310.28;10300935;28;20094;-69
2021/01/27 02:10:53;;;;;;;23.27;14.25;;;;;;;2.00;84.36;101309.81;10297045;28;20057;-68
2021/01/27 02:16:01;;;;;;;20.88;13.43;;;;;;;1.96;84.61;101305.94;10299341;28;20103;-72
2021/01/27 02:21:25;;;;;;;22.85;13.75;;;;;;;1.89;84.71;101298.03;10292842;28;20090;-71
2021/01/27 02:26:39;;;;;;;22.90;14.75;;;;;;;1.87;84.46;101292.06;10283579;28;20045;-70
2021/01/27 02:31:42;;;;;;;20.55;13.65;;;;;;;1.84;84.45;101285.28;10288874;28;20070;-70
2021/01/27 02:36:52;;;;;;;26.15;14.60;;;;;;;1.81;84.62;101285.78;10286373;28;20052;-70
2021/01/27 02:41:55;;;;;;;23.98;13.82;;;;;;;1.76;84.47;101282.16;10302423;28;20605;-70
2021/01/27 02:46:54;;;;;;;29.67;15.35;;;;;;;1.75;84.67;101285.94;10290947;28;20041;-71
2021/01/27 02:51:59;;;;;;;29.85;15.40;;;;;;;1.78;84.58;101286.25;10294829;28;20056;-71
2021/01/27 02:57:06;;;;;;;26.60;14.55;;;;;;;1.84;85.12;101285.28;10293988;28;20041;-71
2021/01/27 03:02:08;;;;;;;27.48;15.70;;;;;;;1.90;84.58;101278.06;10292021;28;20106;-72
2021/01/27 03:07:08;;;;;;;25.58;14.98;;;;;;;1.86;84.41;101266.97;10292984;28;20048;-73
2021/01/27 03:12:05;;;;;;;26.52;16.42;;;;;;;1.89;84.92;101266.47;10298244;28;20091;-72
2021/01/27 03:17:05;;;;;;;26.58;14.93;;;;;;;1.84;84.43;101266.41;10285983;28;20056;-72
2021/01/27 03:22:08;;;;;;;30.67;15.30;;;;;;;1.81;84.20;101258.81;10305767;28;20045;-71
2021/01/27 03:27:11;;;;;;;31.52;16.52;;;;;;;1.79;84.23;101263.63;10296881;28;20391;-72
2021/01/27 03:32:19;;;;;;;24.65;14.75;;;;;;;1.73;84.33;101256.50;10302039;28;20055;-73
2021/01/27 03:37:20;;;;;;;28.35;16.17;;;;;;;1.74;84.00;101252.78;10296596;28;20603;-73
2021/01/27 03:42:25;;;;;;;30.35;17.42;;;;;;;1.72;83.81;101249.50;10290112;28;20079;-71
2021/01/27 03:47:42;;;;;;;29.48;16.65;;;;;;;1.65;84.19;101248.84;10284243;28;20083;-70
2021/01/27 03:52:43;;;;;;;32.45;17.85;;;;;;;1.60;84.30;101246.03;10291473;28;20044;-71
2021/01/27 03:57:45;;;;;;;28.83;19.55;;;;;;;1.57;84.09;101247.34;10288330;28;20056;-72
2021/01/27 04:02:42;;;;;;;30.40;19.52;;;;;;;1.61;84.15;101245.00;10288394;28;20072;-74
2021/01/27 04:07:39;;;;;;;35.45;19.67;;;;;;;1.59;84.59;101236.34;10299124;28;20053;-73
2021/01/27 04:12:35;;;;;;;35.97;21.98;;;;;;;1.59;84.23;101239.03;10289816;28;20040;-72
2021/01/27 04:17:31;;;;;;;34.97;21.55;;;;;;;1.57;84.28;101230.38;10297434;28;20506;-71
2021/01/27 04:22:27;;;;;;;40.78;23.38;;;;;;;1.37;85.18;101231.69;10278720;28;20062;-70
2021/01/27 04:27:25;;;;;;;41.40;24.20;;;;;;;1.52;84.80;101227.59;10296206;28;20065;-69
2021/01/27 04:32:21;;;;;;;35.90;21.98;;;;;;;1.69;84.12;101233.78;10296282;28;20070;-69
2021/01/27 04:37:17;;;;;;;33.28;22.10;;;;;;;1.78;84.09;101220.72;10291874;28;20055;-74
2021/01/27 04:42:13;;;;;;;33.85;21.38;;;;;;;1.82;83.56;101217.28;10293198;28;20409;-75
2021/01/27 04:47:21;;;;;;;35.60;23.35;;;;;;;1.75;83.74;101211.25;10279090;28;20048;-74
2021/01/27 04:52:47;;;;;;;36.85;24.08;;;;;;;1.70;83.83;101205.78;10301656;28;20078;-75
2021/01/27 04:58:07;;;;;;;44.13;24.88;;;;;;;1.73;83.78;101186.41;10281765;28;20045;-75
2021/01/27 05:03:38;;;;;;;38.22;24.50;;;;;;;1.91;83.72;101192.63;10299459;28;20087;-72
2021/01/27 05:08:42;;;;;;;40.28;26.70;;;;;;;1.92;83.72;101188.84;10269440;28;20056;-71
2021/01/27 05:13:43;;;;;;;49.35;28.65;;;;;;;1.92;84.07;101172.66;10290024;28;20071;-72
2021/01/27 05:18:39;;;;;;;60.25;29.17;;;;;;;1.88;84.68;101178.56;10285756;28;20053;-72
2021/01/27 05:23:35;;;;;;;54.15;30.48;;;;;;;1.94;84.21;101175.94;10287217;28;20037;-72
2021/01/27 05:28:39;;;;;;;55.08;33.55;;;;;;;1.92;84.45;101175.34;10288069;28;20052;-71
2021/01/27 05:33:50;;;;;;;53.72;32.22;;;;;;;1.80;84.39;101168.19;10295059;28;20574;-70
2021/01/27 05:38:48;;;;;;;56.20;30.90;;;;;;;1.94;84.40;101171.34;10296128;28;20071;-72
2021/01/27 05:43:44;;;;;;;50.80;29.95;;;;;;;2.01;84.12;101161.19;10297683;28;20053;-70
2021/01/27 05:48:49;;;;;;;52.95;32.30;;;;;;;1.99;83.80;101173.28;10297505;28;20434;-70
2021/01/27 05:53:45;;;;;;;48.15;31.40;;;;;;;2.07;84.01;101170.19;10175104;28;69350;-71
2021/01/27 05:58:57;;;;;;;46.67;30.77;;;;;;;1.98;83.53;101166.28;10104139;28;21446;-70
2021/01/27 06:03:58;;;;;;;50.65;31.55;;;;;;;1.96;83.34;101163.81;10099649;28;78561;-70
2021/01/27 06:08:57;;;;;;;51.00;30.85;;;;;;;2.01;83.46;101154.97;10105792;28;20456;-70
2021/01/27 06:14:07;;;;;;;50.88;30.33;;;;;;;2.07;83.15;101154.00;10094166;28;20047;-69
2021/01/27 06:19:18;;;;;;;50.70;31.95;;;;;;;2.03;83.20;101142.06;10097825;28;20448;-69
2021/01/27 06:24:51;;;;;;;45.72;29.63;;;;;;;2.08;83.16;101139.44;10088293;28;20070;-70
2021/01/27 06:30:19;;;;;;;44.28;28.98;;;;;;;2.13;82.80;101142.19;10106452;28;20086;-70
2021/01/27 06:35:29;;;;;;;47.60;27.60;;;;;;;2.08;82.56;101140.22;10125756;28;20043;-69
2021/01/27 06:40:33;;;;;;;45.70;27.58;;;;;;;2.15;82.03;101139.25;10082405;28;20066;-69
2021/01/27 06:45:51;;;;;;;44.53;28.48;;;;;;;2.08;82.10;101139.44;10086680;28;20050;-69
2021/01/27 06:51:03;;;;;;;48.70;29.70;;;;;;;2.11;81.64;101138.91;10084794;28;20078;-69
2021/01/27 06:56:04;;;;;;;42.40;28.05;;;;;;;1.99;81.92;101132.84;10093027;28;20070;-70
2021/01/27 07:01:33;;;;;;;46.50;29.15;;;;;;;1.94;81.77;101128.19;10092200;28;20055;-70
2021/01/27 07:06:57;;;;;;;48.47;29.73;;;;;;;1.94;81.87;101138.16;10097590;28;20053;-70
2021/01/27 07:12:15;;;;;;;42.38;26.70;;;;;;;1.95;81.11;101137.09;10086618;28;20098;-69
2021/01/27 07:17:17;;;;;;;44.03;25.80;;;;;;;1.82;81.29;101125.63;10082734;28;20093;-69
2021/01/27 07:22:25;;;;;;;42.47;26.45;;;;;;;1.73;81.80;101137.88;10090057;28;20047;-69
2021/01/27 07:27:22;;;;;;;42.03;27.40;;;;;;;1.83;80.89;101132.66;10082897;28;20051;-70
2021/01/27 07:32:35;;;;;;;46.45;27.25;;;;;;;1.72;80.67;101136.28;10099085;28;20105;-70
2021/01/27 07:37:48;;;;;;;38.67;25.40;;;;;;;1.82;80.43;101135.59;10089815;28;20596;-70
2021/01/27 07:43:07;;;;;;;39.55;24.98;;;;;;;1.76;80.72;101123.91;10126315;28;20117;-69
2021/01/27 07:48:31;;;;;;;41.90;25.45;;;;;;;1.72;80.33;101112.00;10127445;28;20057;-67
2021/01/27 07:53:30;;;;;;;38.87;24.47;;;;;;;1.66;80.62;101110.28;10132361;28;20039;-67
2021/01/27 07:59:19;;;;;;;40.75;25.98;;;;;;;1.80;80.90;101110.75;10127945;28;20054;-68
2021/01/27 08:04:29;;;;;;;42.72;26.50;;;;;;;1.72;80.61;101092.28;10140939;28;20105;-67
2021/01/27 08:09:35;;;;;;;44.92;27.92;;;;;;;1.71;81.22;101096.06;10139046;28;20054;-67
2021/01/27 08:15:22;;;;;;;42.88;27.27;;;;;;;1.73;80.81;101094.75;10133790;28;20492;-67
2021/01/27 08:20:25;;;;;;;50.08;28.45;;;;;;;1.69;81.10;101088.22;10130605;28;20147;-68
2021/01/27 08:25:52;;;;;;;47.38;30.05;;;;;;;1.72;80.88;101086.91;10139129;28;20462;-68
2021/01/27 08:31:06;;;;;;;51.80;30.95;;;;;;;1.53;81.53;101073.72;10135245;28;20057;-67
2021/01/27 08:36:04;;;;;;;;;;;;;;;1.51;82.08;101066.94;10142691;28;20151;-67
2021/01/27 08:41:01;;;;;;;49.92;30.88;;;;;;;1.40;81.87;101066.81;10135840;28;20302;-67
2021/01/27 08:45:57;;;;;;;48.25;31.48;;;;;;;1.39;82.42;101078.69;10134342;28;20528;-67
2021/01/27 08:50:54;;;;;;;50.90;33.35;;;;;;;1.55;81.97;101078.88;10145093;28;20420;-67
2021/01/27 08:55:53;;;;;;;49.78;29.95;;;;;;;1.43;82.11;101073.59;10139224;28;20054;-67
2021/01/27 09:00:56;;;;;;;44.28;29.67;;;;;;;1.59;81.99;101072.72;10136561;28;20751;-67
2021/01/27 09:05:52;;;;;;;44.58;29.60;;;;;;;1.65;81.25;101068.25;10143576;28;20090;-66
2021/01/27 09:10:55;;;;;;;44.83;30.85;;;;;;;1.76;80.64;101072.69;10135698;28;20050;-67
2021/01/27 09:15:56;;;;;;;48.90;30.23;;;;;;;1.92;79.93;101079.09;10124104;28;20053;-67
2021/01/27 09:20:53;;;;;;;46.03;26.88;;;;;;;1.96;79.57;101060.53;10142466;28;20466;-67
2021/01/27 09:25:50;;;;;;;39.83;27.40;;;;;;;1.98;79.00;101061.91;10125924;28;20424;-67
2021/01/27 09:30:47;;;;;;;37.17;25.67;;;;;;;2.08;78.72;101058.50;10124240;28;20175;-65
2021/01/27 09:35:46;;;;;;;37.45;23.73;;;;;;;2.11;78.15;101068.78;10132008;28;20061;-67
2021/01/27 09:41:04;;;;;;;37.63;24.27;;;;;;;2.21;77.63;101085.09;10122149;28;20085;-67
2021/01/27 09:46:17;;;;;;;34.65;21.77;;;;;;;2.40;76.19;101084.75;10141073;28;20058;-68
2021/01/27 09:51:15;;;;;;;29.40;18.98;;;;;;;2.61;75.11;101094.69;10137981;28;20503;-66
2021/01/27 09:56:16;;;;;;;28.90;19.10;;;;;;;2.71;74.27;101088.56;10129990;28;20587;-66
2021/01/27 10:01:18;;;;;;;28.50;15.52;;;;;;;3.03;73.02;101091.28;10106041;28;20780;-67
2021/01/27 10:06:28;;;;;;;24.13;15.02;;;;;;;3.35;70.25;101093.13;10114963;28;20049;-67
2021/01/27 10:11:31;;;;;;;21.08;13.10;;;;;;;3.86;69.61;101101.53;10140960;28;20066;-67
2021/01/27 10:16:28;;;;;;;;;;;;;;;3.64;67.91;101088.16;10146770;28;20042;-66
2021/01/27 10:21:24;;;;;;;16.67;10.10;;;;;;;3.71;68.12;101077.09;10146818;28;19929;-66
2021/01/27 10:26:37;;;;;;;14.07;9.27;;;;;;;3.44;68.03;101066.44;10149398;28;20072;-67
2021/01/27 10:31:35;;;;;;;14.38;8.23;;;;;;;3.69;67.47;101060.31;10127387;28;20055;-67
2021/01/27 10:36:37;;;;;;;14.25;7.95;;;;;;;3.66;67.43;101060.84;10120726;28;20046;-66
2021/01/27 10:41:33;;;;;;;13.88;8.70;;;;;;;3.76;67.58;101055.47;10115810;28;20125;-66
2021/01/27 10:46:34;;;;;;;14.35;7.57;;;;;;;3.78;67.13;101053.34;10128344;28;20055;-66
2021/01/27 10:51:30;;;;;;;13.75;8.57;;;;;;;3.74;67.61;101058.47;10116008;28;20053;-67
2021/01/27 10:56:26;;;;;;;12.40;7.50;;;;;;;3.62;66.96;101054.34;10125649;28;20039;-66
2021/01/27 11:01:22;;;;;;;13.60;8.10;;;;;;;3.64;67.58;101052.19;10092188;28;20046;-66
2021/01/27 11:06:19;;;;;;;14.00;8.50;;;;;;;3.61;67.03;101063.53;10103081;28;20046;-66
2021/01/27 11:11:15;;;;;;;12.32;7.75;;;;;;;3.77;67.47;101057.13;10093016;28;20524;-66
2021/01/27 11:16:11;;;;;;;16.15;7.70;;;;;;;3.58;67.09;101044.06;10082649;28;20043;-67
2021/01/27 11:21:09;;;;;;;15.05;8.07;;;;;;;3.55;67.43;101028.38;10088849;28;20425;-67
2021/01/27 11:26:05;;;;;;;11.18;7.55;;;;;;;3.44;67.28;101015.88;10087727;28;20064;-67
2021/01/27 11:31:01;;;;;;;14.65;7.80;;;;;;;3.32;67.95;101007.97;10080958;28;20064;-65
2021/01/27 11:35:57;;;;;;;14.18;7.78;;;;;;;3.46;67.72;101002.91;10081809;28;20055;-67
2021/01/27 11:40:53;;;;;;;13.25;7.65;;;;;;;3.46;67.80;100994.81;10092026;28;20114;-66
2021/01/27 11:45:50;;;;;;;13.45;7.75;;;;;;;3.54;67.75;100988.88;10090480;28;20054;-68
2021/01/27 11:51:06;;;;;;;13.35;7.43;;;;;;;3.53;67.16;100981.06;10107832;28;20130;-67
2021/01/27 11:56:02;;;;;;;12.80;6.57;;;;;;;3.43;67.94;100975.59;10091081;28;20075;-66
2021/01/27 12:00:59;;;;;;;13.32;7.25;;;;;;;3.52;66.92;100957.78;10088647;28;20055;-66
2021/01/27 12:05:55;;;;;;;10.88;6.97;;;;;;;3.73;67.89;100950.53;10087116;28;20101;-66
2021/01/27 12:10:51;;;;;;;12.07;5.70;;;;;;;3.75;66.67;100934.88;10094677;28;20456;-66
2021/01/27 12:15:48;;;;;;;10.25;6.13;;;;;;;3.70;66.89;100921.34;10085667;28;20050;-66
2021/01/27 12:20:46;;;;;;;10.48;6.13;;;;;;;3.90;67.18;100929.50;10086617;28;20051;-68
2021/01/27 12:25:43;;;;;;;10.85;5.47;;;;;;;3.61;66.63;100917.53;10102245;28;20594;-66
2021/01/27 12:30:40;;;;;;;9.38;4.75;;;;;;;3.77;66.67;100913.78;10108463;28;20182;-66
2021/01/27 12:35:36;;;;;;;10.68;5.10;;;;;;;3.74;66.00;100908.91;10147846;28;20042;-66
2021/01/27 12:40:32;;;;;;;11.68;5.57;;;;;;;3.68;67.08;100920.78;10149647;28;20057;-66
2021/01/27 12:45:29;;;;;;;8.82;4.95;;;;;;;3.84;66.28;100917.03;10146341;28;20054;-66
2021/01/27 12:50:25;;;;;;;7.95;4.65;;;;;;;3.85;66.35;100902.41;10139401;28;20061;-66
2021/01/27 12:55:22;;;;;;;8.00;4.20;;;;;;;3.68;66.39;100891.03;10137201;28;20072;-66
2021/01/27 13:00:24;;;;;;;7.95;4.93;;;;;;;3.32;67.03;100899.06;10137866;28;20493;-68
2021/01/27 13:05:21;;;;;;;10.93;5.68;;;;;;;3.37;67.23;100890.97;10101576;28;20178;-66
2021/01/27 13:10:18;;;;;;;8.05;4.55;;;;;;;3.44;67.41;100891.53;10098501;28;20062;-65
2021/01/27 13:15:17;;;;;;;8.95;5.07;;;;;;;3.26;67.84;100889.31;10097382;28;20096;-65
2021/01/27 13:20:18;;;;;;;9.18;4.65;;;;;;;3.39;67.17;100883.41;10101024;28;20150;-67
2021/01/27 13:25:18;;;;;;;10.40;5.25;;;;;;;3.29;67.42;100883.34;10095374;28;20067;-70
2021/01/27 13:30:29;;;;;;;8.85;4.53;;;;;;;3.26;67.71;100867.69;10098924;28;20440;-66
2021/01/27 13:35:28;;;;;;;9.15;4.65;;;;;;;3.31;68.32;100867.69;10104919;28;20487;-66
2021/01/27 13:40:25;;;;;;;6.85;4.57;;;;;;;3.28;68.54;100865.53;10137383;28;20097;-67
2021/01/27 13:45:23;;;;;;;9.45;5.00;;;;;;;3.37;67.95;100839.63;10135592;28;20046;-66
2021/01/27 13:50:19;;;;;;;7.40;4.78;;;;;;;3.21;68.72;100838.75;10144738;28;20516;-66
2021/01/27 13:55:17;;;;;;;9.48;4.82;;;;;;;3.20;68.04;100847.13;10128963;28;20085;-68
2021/01/27 14:00:17;;;;;;;10.57;5.20;;;;;;;3.21;68.57;100848.75;10084556;28;20453;-69
2021/01/27 14:05:19;;;;;;;9.70;5.72;;;;;;;3.04;68.73;100855.19;10091107;28;20079;-67
2021/01/27 14:10:17;;;;;;;9.38;4.80;;;;;;;3.20;68.63;100847.13;10094420;28;20042;-67
2021/01/27 14:15:15;;;;;;;11.18;5.00;;;;;;;3.24;68.33;100838.22;10093732;28;20128;-67
2021/01/27 14:20:15;;;;;;;9.02;5.47;;;;;;;3.24;69.23;100826.59;10101802;28;20079;-67
2021/01/27 14:25:15;;;;;;;7.03;4.43;;;;;;;3.10;69.64;100815.47;10093251;28;20043;-67
2021/01/27 14:30:14;;;;;;;8.57;5.30;;;;;;;3.12;69.60;100819.53;10098546;28;20047;-68
2021/01/27 14:35:11;;;;;;;12.88;4.72;;;;;;;3.22;69.78;100823.34;10095194;28;20081;-69
2021/01/27 14:40:08;;;;;;;7.32;4.70;;;;;;;3.06;69.53;100812.47;10123309;28;20122;-67
2021/01/27 14:45:06;;;;;;;8.90;4.80;;;;;;;3.09;69.84;100814.66;10138115;28;20051;-67
2021/01/27 14:50:03;;;;;;;9.52;4.88;;;;;;;3.01;69.83;100803.56;10135345;28;20058;-67
2021/01/27 14:54:59;;;;;;;5.97;4.30;;;;;;;2.99;70.50;100808.41;10136667;28;20053;-67
2021/01/27 14:59:55;;;;;;;7.22;4.00;;;;;;;2.95;70.48;100805.44;10142435;28;20050;-67
2021/01/27 15:04:53;;;;;;;8.88;4.47;;;;;;;2.84;71.17;100806.47;10141167;28;20097;-68
2021/01/27 15:09:49;;;;;;;8.13;4.30;;;;;;;2.99;71.16;100808.41;10134285;28;20444;-69
2021/01/27 15:14:46;;;;;;;8.07;5.03;;;;;;;2.96;71.84;100812.47;10135283;28;20062;-66
2021/01/27 15:19:42;;;;;;;8.73;4.85;;;;;;;2.87;71.66;100805.94;10131379;28;20051;-66
2021/01/27 15:24:38;;;;;;;9.00;4.68;;;;;;;2.93;72.56;100810.28;10128120;28;20038;-66
2021/01/27 15:29:35;;;;;;;7.45;5.15;;;;;;;2.62;73.24;100818.25;10131865;28;20047;-66
2021/01/27 15:34:31;;;;;;;10.00;5.55;;;;;;;2.71;74.04;100813.97;10128932;28;20073;-68
2021/01/27 15:39:28;;;;;;;9.35;5.60;;;;;;;2.74;73.28;100824.25;10144468;28;20043;-68
2021/01/27 15:44:24;;;;;;;8.02;5.63;;;;;;;2.64;73.86;100820.69;10126385;28;20090;-69
2021/01/27 15:49:20;;;;;;;10.60;5.85;;;;;;;2.74;73.99;100824.25;10135020;28;20133;-69
2021/01/27 15:54:17;;;;;;;10.25;6.10;;;;;;;2.83;73.76;100831.84;10131701;28;20042;-66
2021/01/27 15:59:14;;;;;;;11.85;6.65;;;;;;;2.72;74.62;100826.41;10143311;28;20046;-66
2021/01/27 16:04:12;;;;;;;11.60;7.10;;;;;;;2.66;75.40;100830.13;10129416;28;20050;-66
2021/01/27 16:09:13;;;;;;;13.80;8.10;;;;;;;2.59;76.11;100821.47;10136552;28;20053;-66
2021/01/27 16:14:10;;;;;;;12.98;8.27;;;;;;;2.50;76.64;100820.34;10145912;28;20505;-66
2021/01/27 16:19:07;;;;;;;10.65;7.47;;;;;;;2.39;77.41;100821.34;10134182;28;20500;-66
2021/01/27 16:24:06;;;;;;;12.07;8.27;;;;;;;2.42;78.17;100815.44;10112899;28;20043;-66
2021/01/27 16:29:02;;;;;;;14.45;8.48;;;;;;;2.36;78.80;100813.78;10106158;28;20538;-65
2021/01/27 16:33:58;;;;;;;13.27;8.52;;;;;;;2.37;78.75;100805.44;10103901;28;20047;-66
2021/01/27 16:39:00;;;;;;;13.30;8.45;;;;;;;2.43;78.80;100806.25;10094034;28;20481;-68
2021/01/27 16:43:56;;;;;;;13.82;8.77;;;;;;;2.50;78.51;100796.03;10082895;28;20050;-67
2021/01/27 16:48:53;;;;;;;12.10;8.32;;;;;;;2.36;78.88;100794.88;10096367;28;20425;-66
2021/01/27 16:53:50;;;;;;;11.75;8.10;;;;;;;2.40;79.00;100786.00;10100325;28;20058;-66
2021/01/27 16:58:46;;;;;;;15.48;8.68;;;;;;;2.38;79.31;100781.94;10102496;28;20627;-71
2021/01/27 17:03:42;;;;;;;14.98;10.45;;;;;;;2.37;79.93;100774.91;10099292;28;20066;-67
2021/01/27 17:08:41;;;;;;;15.02;10.07;;;;;;;2.48;79.89;100763.94;10094045;28;20055;-68
2021/01/27 17:13:37;;;;;;;14.57;9.90;;;;;;;2.46;79.81;100762.56;10109514;28;20047;-67
2021/01/27 17:18:33;;;;;;;15.52;11.25;;;;;;;2.48;79.42;100755.00;10105437;28;20061;-66
2021/01/27 17:23:29;;;;;;;16.60;11.15;;;;;;;2.40;79.51;100747.44;10088644;28;20046;-68
2021/01/27 17:28:25;;;;;;;18.30;12.57;;;;;;;2.39;79.83;100741.22;10109711;28;20046;-66
2021/01/27 17:33:22;;;;;;;17.75;11.18;;;;;;;2.49;79.88;100751.25;10107693;28;20046;-66
2021/01/27 17:38:19;;;;;;;16.73;12.05;;;;;;;2.46;79.93;100746.34;10101408;28;20050;-67
2021/01/27 17:43:16;;;;;;;20.55;12.90;;;;;;;2.44;80.46;100743.13;10086611;28;20551;-67
2021/01/27 17:48:12;;;;;;;19.15;12.23;;;;;;;2.34;80.83;100748.47;10106658;28;20491;-66
2021/01/27 17:53:10;;;;;;;16.95;12.07;;;;;;;2.48;81.10;100746.91;10108204;28;20113;-67
2021/01/27 17:58:06;;;;;;;19.92;13.73;;;;;;;2.40;80.70;100747.44;10096736;28;20501;-68
2021/01/27 18:03:06;;;;;;;18.35;13.13;;;;;;;2.34;81.39;100732.28;10102202;28;20050;-66
2021/01/27 18:08:03;;;;;;;18.20;13.75;;;;;;;2.18;81.74;100729.50;10084200;28;20075;-67
2021/01/27 18:13:01;;;;;;;19.70;14.35;;;;;;;2.42;81.79;100726.38;10095620;28;20057;-68
2021/01/27 18:17:58;;;;;;;20.33;14.40;;;;;;;2.34;81.61;100716.09;10085956;28;20047;-67
2021/01/27 18:22:55;;;;;;;19.70;14.93;;;;;;;2.27;82.38;100710.91;10078383;28;20085;-67
2021/01/27 18:27:51;;;;;;;20.10;14.50;;;;;;;2.33;81.82;100709.06;10091622;28;20156;-66
2021/01/27 18:32:50;;;;;;;21.60;15.00;;;;;;;2.30;82.42;100703.13;10095565;28;20051;-68
2021/01/27 18:37:46;;;;;;;23.63;14.70;;;;;;;2.31;82.48;100691.25;10104766;28;20047;-65
2021/01/27 18:42:42;;;;;;;21.25;15.93;;;;;;;2.24;82.74;100690.69;10092892;28;20047;-67
2021/01/27 18:47:39;;;;;;;23.10;17.05;;;;;;;2.31;82.71;100671.56;10092016;28;20125;-66
2021/01/27 18:52:37;;;;;;;21.08;15.80;;;;;;;2.30;82.78;100672.66;10093366;28;20118;-66
2021/01/27 18:57:33;;;;;;;21.83;16.55;;;;;;;2.24;83.16;100669.09;10086983;28;20094;-65
2021/01/27 19:02:29;;;;;;;23.02;16.20;;;;;;;2.18;83.58;100680.97;10095477;28;20051;-65
2021/01/27 19:07:25;;;;;;;22.15;16.70;;;;;;;2.19;83.88;100685.25;10101156;28;20053;-66
2021/01/27 19:12:22;;;;;;;21.48;16.70;;;;;;;2.37;83.27;100672.38;10106438;28;20059;-66
2021/01/27 19:17:18;;;;;;;22.63;16.92;;;;;;;2.29;82.79;100666.41;10087199;28;20087;-68
2021/01/27 19:22:14;;;;;;;19.40;14.02;;;;;;;2.38;82.18;100663.22;10092494;28;20070;-66
2021/01/27 19:27:10;;;;;;;19.67;13.32;;;;;;;2.49;81.89;100654.88;10095617;28;20127;-67
2021/01/27 19:32:06;;;;;;;17.17;14.20;;;;;;;2.47;82.42;100650.84;10105399;28;20050;-67
2021/01/27 19:37:03;;;;;;;18.23;13.23;;;;;;;2.51;81.98;100651.94;10106243;28;20542;-68
2021/01/27 19:42:00;;;;;;;16.65;12.85;;;;;;;2.52;81.86;100658.94;10137453;28;20099;-66
2021/01/27 19:46:56;;;;;;;17.98;14.10;;;;;;;2.49;82.04;100654.09;10138347;28;20054;-68
2021/01/27 19:51:53;;;;;;;19.00;14.25;;;;;;;2.46;82.10;100649.19;10134487;28;20050;-66
2021/01/27 19:56:49;;;;;;;17.65;13.43;;;;;;;2.59;81.55;100653.31;10133009;28;20562;-68
2021/01/27 20:01:45;;;;;;;18.30;12.93;;;;;;;2.59;82.15;100646.00;10121176;28;20062;-66
2021/01/27 20:06:41;;;;;;;25.88;15.40;;;;;;;2.70;81.66;100638.75;10119242;28;20137;-66
2021/01/27 20:11:37;;;;;;;22.38;15.98;;;;;;;2.56;82.81;100635.75;10123028;28;20056;-66
2021/01/27 20:16:33;;;;;;;22.85;15.68;;;;;;;2.43;83.40;100628.16;10122570;28;20676;-68
2021/01/27 20:21:29;;;;;;;23.65;17.05;;;;;;;2.39;83.85;100621.66;10117792;28;20077;-68
2021/01/27 20:26:26;;;;;;;23.30;16.33;;;;;;;2.53;83.95;100612.00;10126368;28;20049;-68
2021/01/27 20:31:22;;;;;;;27.38;16.77;;;;;;;2.57;84.06;100599.56;10130402;28;21599;-68
2021/01/27 20:36:18;;;;;;;27.30;16.25;;;;;;;2.43;84.07;100609.25;10113564;28;20684;-68
2021/01/27 20:41:14;;;;;;;26.33;17.00;;;;;;;2.57;84.35;100602.28;10098182;28;20527;-69
2021/01/27 20:46:10;;;;;;;27.48;17.35;;;;;;;2.62;84.24;100614.97;10091988;28;20764;-69
2021/01/27 20:51:08;;;;;;;24.30;16.30;;;;;;;2.56;84.49;100611.47;10086022;28;20050;-69
2021/01/27 20:56:05;;;;;;;27.02;17.65;;;;;;;2.60;84.93;100604.47;10079862;28;20130;-65
2021/01/27 21:01:01;;;;;;;27.38;17.50;;;;;;;2.70;84.33;100612.56;10091910;28;20055;-70
2021/01/27 21:05:58;;;;;;;31.73;19.27;;;;;;;2.79;84.53;100614.75;10090218;28;20126;-71
2021/01/27 21:10:54;;;;;;;29.00;16.58;;;;;;;2.61;85.48;100606.06;10093790;28;20121;-72
2021/01/27 21:15:50;;;;;;;33.78;19.10;;;;;;;2.61;85.88;100611.47;10090039;28;20047;-71
2021/01/27 21:20:47;;;;;;;37.88;21.83;;;;;;;2.57;86.61;100607.66;10084474;28;20059;-71
2021/01/27 21:25:44;;;;;;;37.10;20.73;;;;;;;2.61;86.64;100602.56;10087733;28;20070;-71
2021/01/27 21:30:41;;;;;;;36.97;18.50;;;;;;;2.46;87.21;100614.13;10098715;28;20046;-71
2021/01/27 21:35:42;;;;;;;38.38;22.20;;;;;;;2.59;87.15;100605.50;10094326;28;20043;-71
2021/01/27 21:40:39;;;;;;;42.55;22.55;;;;;;;2.63;87.55;100606.59;10110241;28;20098;-71
2021/01/27 21:45:38;;;;;;;46.58;24.52;;;;;;;2.53;87.71;100598.50;10100471;28;20050;-70
2021/01/27 21:50:35;;;;;;;50.30;27.58;;;;;;;2.69;87.86;100605.56;10097396;28;20444;-71
2021/01/27 21:55:32;;;;;;;59.60;29.83;;;;;;;2.70;87.85;100612.56;10099499;28;20114;-70
2021/01/27 22:00:29;;;;;;;51.92;26.50;;;;;;;2.70;88.20;100601.75;10102784;28;20047;-70
2021/01/27 22:05:28;;;;;;;51.20;24.58;;;;;;;2.76;88.40;100604.47;10104868;28;20098;-70
2021/01/27 22:10:24;;;;;;;51.53;25.00;;;;;;;2.76;88.23;100609.84;10095577;28;20062;-70
2021/01/27 22:15:24;;;;;;;49.03;25.30;;;;;;;2.78;88.53;100613.09;10103710;28;20198;-71
2021/01/27 22:20:20;;;;;;;48.95;24.35;;;;;;;2.83;88.53;100615.81;10142156;28;20082;-68
2021/01/27 22:25:19;;;;;;;47.10;22.70;;;;;;;2.80;88.86;100605.56;10094965;28;20046;-68
2021/01/27 22:30:19;;;;;;;53.13;25.42;;;;;;;2.91;88.64;100607.19;10112647;28;20054;-69
2021/01/27 22:35:23;;;;;;;45.75;22.52;;;;;;;2.91;88.86;100601.78;10096239;28;20402;-69
2021/01/27 22:40:22;;;;;;;50.10;23.65;;;;;;;2.99;89.21;100598.53;10112726;28;20050;-71
2021/01/27 22:45:19;;;;;;;50.80;25.33;;;;;;;3.04;89.29;100601.25;10103690;28;20135;-70
2021/01/27 22:50:16;;;;;;;52.10;24.40;;;;;;;3.13;89.16;100588.00;10109393;28;20054;-67